Goshen, VA

2:36 PM EDT on August 23, 2014 (GMT -0400)
Ingalls | Change Station
CLOSE
Current Station
Airport
Location: Hot Springs,
Elevation: 3793 ft
Nearby Weather Stations

Elev 3793 ft 37.95 °N, 79.83 °W | Updated 21 minutes ago

Overcast
Overcast
72 °F
Feels Like 72 °F
N
5
Wind Variable Wind from West

Today
High -- | Low -- °F
--% Chance of Precip.
Yesterday
High -- | Low -- °F
Precip. -- in
6:40 AM 8:00 PM
Waning Crescent, 3% visible
Pressure 30.15 in
Visibility 7.0 miles
Clouds Scattered Clouds 1800 ft
Mostly Cloudy 2200 ft
Overcast 8000 ft
Dew Point 63 °F
Humidity 72%
Rainfall 0.00 in
Snow Depth Not available.
UV 3 out of 12
Pollen 8.20 out of 12
Air Quality Not available.
Flu Activity Not available.
METAR KHSP 231815Z AUTO 26004KT 7SM SCT018 BKN022 OVC080 23/17 A3015 RMK AO2 T02250172

More Conditions Fewer Conditions

Pressure 30.15 in
Visibility 7.0 miles
Clouds Scattered Clouds 1800 ft
Mostly Cloudy 2200 ft
Overcast 8000 ft
Dew Point 63 °F
Humidity 72%
Rainfall 0.00 in
Snow Depth Not available.
UV 3 out of 12
Pollen 8.20 out of 12
Air Quality Not available.
Flu Activity Not available.
METAR KHSP 231815Z AUTO 26004KT 7SM SCT018 BKN022 OVC080 23/17 A3015 RMK AO2 T02250172

More Conditions Fewer Conditions

10-Day Weather Forecast

Almanac

Astronomy

Aug. 23, 2014 Rise Set
Actual Time 6:40 AM EDT 8:00 PM EDT
Civil Twilight 6:12 AM EDT 8:27 PM EDT
Nautical Twilight 5:39 AM EDT 9:00 PM EDT
Astronomical Twilight 5:05 AM EDT 9:34 PM EDT
Moon 4:55 AM EDT 6:43 PM EDT
Length of Visible Light 14h 15m
Length of Day
13h 20m
Tomorrow will be 2m 16s shorter.
Waning Crescent, 3% of the Moon is Illuminated
Today
Waning Crescent
Aug 25
New
Sep 2
First Quarter
Sep 8
Full
Sep 15
Last Quarter

Today's Extremes

State Highs State Lows

Community

WunderPhotos

Upload Photos

1,746,555 photos uploaded!

WunderBlogs® & News

By Dr. Jeff Masters
Director of Meteorology, Weather Underground
By Kari Strenfel
Meteorologist, Weather Underground
By Christopher C. Burt
Weather Historian, Weather Underground
August 23, 2014
August 23, 2014
August 23, 2014

Nearby

Snow Depth

Station Depth Elevation
No new snow has been reported.

Earthquake Activity

City Distance Mag. Time & Date
No recent earthquake activity has been reported nearby.
Minimum magnitude displayed is 2.5.

Coastal Water Temperatures

Place Temperature
No Stations Reporting

Nearby Weather Stations